createdAt,value
2018-06-11T00:00:00.577Z,26.10
2018-06-11T00:02:28.744Z,26.00
2018-06-11T00:04:56.831Z,26.53
2018-06-11T00:07:24.979Z,25.20
2018-06-11T00:09:53.086Z,24.60
2018-06-11T00:12:21.273Z,26.43
2018-06-11T00:14:49.404Z,25.70
2018-06-11T00:17:17.489Z,26.00
2018-06-11T00:19:45.623Z,26.80
2018-06-11T00:22:13.684Z,26.40
2018-06-11T00:24:41.760Z,27.83
2018-06-11T00:27:09.844Z,27.87
2018-06-11T00:29:38.064Z,29.10
2018-06-11T00:32:06.117Z,30.33
2018-06-11T00:34:35.207Z,29.37
2018-06-11T00:37:03.357Z,30.40
2018-06-11T00:39:31.383Z,31.60
2018-06-11T00:41:59.397Z,31.07
2018-06-11T00:44:27.481Z,31.20
2018-06-11T00:46:55.472Z,32.00
2018-06-11T00:49:23.551Z,31.33
2018-06-11T00:51:51.687Z,32.17
2018-06-11T00:54:19.762Z,31.50
2018-06-11T00:56:47.808Z,31.27
2018-06-11T00:59:15.860Z,29.07
2018-06-11T01:01:44.001Z,30.57
2018-06-11T01:04:12.118Z,28.70
2018-06-11T01:06:40.190Z,30.37
2018-06-11T01:09:08.296Z,28.00
2018-06-11T01:11:36.379Z,30.13
2018-06-11T01:14:04.443Z,30.60
2018-06-11T01:16:32.491Z,29.60
2018-06-11T01:19:00.627Z,30.70
2018-06-11T01:21:28.768Z,30.23
2018-06-11T01:23:56.917Z,31.57
2018-06-11T01:26:25.078Z,31.63
2018-06-11T01:28:53.260Z,32.27
2018-06-11T01:31:21.494Z,29.97
2018-06-11T01:33:49.483Z,30.63
2018-06-11T01:36:17.705Z,32.00
2018-06-11T01:38:46.783Z,29.53
2018-06-11T01:41:14.868Z,31.40
2018-06-11T01:43:42.900Z,31.10
2018-06-11T01:46:11.044Z,29.70
2018-06-11T01:48:39.124Z,30.00
2018-06-11T01:51:07.208Z,31.33
2018-06-11T01:53:35.391Z,30.20
2018-06-11T01:56:03.487Z,30.60
2018-06-11T01:58:31.540Z,27.50
2018-06-11T02:00:59.655Z,29.90
2018-06-11T02:03:27.719Z,29.03
2018-06-11T02:05:55.849Z,28.77
2018-06-11T02:08:23.881Z,29.13
2018-06-11T02:10:51.944Z,29.77
2018-06-11T02:13:19.977Z,30.90
2018-06-11T02:15:48.047Z,29.97
2018-06-11T02:18:16.420Z,29.53
2018-06-11T02:20:44.601Z,29.93
2018-06-11T02:23:12.633Z,30.27
2018-06-11T02:25:40.871Z,31.40
2018-06-11T02:28:09.235Z,31.20
2018-06-11T02:30:37.327Z,31.30
2018-06-11T02:33:05.407Z,32.10
2018-06-11T02:35:33.473Z,33.13
2018-06-11T02:38:01.560Z,32.17
2018-06-11T02:40:29.779Z,32.10
2018-06-11T02:42:58.980Z,33.10
2018-06-11T02:45:27.074Z,32.70
2018-06-11T02:47:55.126Z,32.80
2018-06-11T02:50:23.191Z,31.77
2018-06-11T02:52:51.271Z,33.17
2018-06-11T02:55:19.315Z,31.03
2018-06-11T02:57:47.386Z,31.77
2018-06-11T03:00:16.474Z,32.40
2018-06-11T03:02:44.627Z,31.87
2018-06-11T03:05:12.782Z,30.63
2018-06-11T03:07:40.873Z,30.23
2018-06-11T03:10:08.890Z,28.77
2018-06-11T03:12:36.940Z,31.13
2018-06-11T03:15:05.046Z,27.80
2018-06-11T03:17:34.481Z,28.87
2018-06-11T03:20:02.556Z,28.27
2018-06-11T03:22:30.604Z,27.00
2018-06-11T03:24:58.610Z,27.77
2018-06-11T03:27:26.705Z,26.63
2018-06-11T03:29:54.784Z,27.47
2018-06-11T03:32:22.868Z,25.97
2018-06-11T03:34:51.705Z,26.33
2018-06-11T03:37:19.915Z,25.13
2018-06-11T03:39:47.953Z,25.17
2018-06-11T03:42:16.068Z,26.37
2018-06-11T03:44:44.144Z,25.33
2018-06-11T03:47:12.274Z,25.20
2018-06-11T03:49:40.407Z,24.80
2018-06-11T03:52:08.434Z,23.70
2018-06-11T03:54:36.605Z,23.63
2018-06-11T03:57:04.744Z,24.73
2018-06-11T03:59:32.875Z,25.17
2018-06-11T04:02:00.923Z,26.17
2018-06-11T04:04:28.961Z,25.73
2018-06-11T04:06:57.154Z,27.60
2018-06-11T04:09:25.214Z,27.77
2018-06-11T04:11:53.457Z,26.00
2018-06-11T04:14:21.459Z,25.33
2018-06-11T04:16:49.534Z,25.33
2018-06-11T04:19:17.565Z,26.27
2018-06-11T04:21:45.647Z,26.87
2018-06-11T04:24:13.832Z,26.10
2018-06-11T04:26:41.979Z,26.47
2018-06-11T04:29:10.102Z,25.97
2018-06-11T04:31:38.304Z,26.43
2018-06-11T04:34:06.481Z,25.90
2018-06-11T04:36:34.485Z,25.77
2018-06-11T04:39:02.584Z,27.23
2018-06-11T04:41:30.810Z,25.90
2018-06-11T04:43:58.927Z,24.07
2018-06-11T04:46:26.977Z,24.00
2018-06-11T04:48:55.027Z,21.70
2018-06-11T04:51:23.088Z,22.03
2018-06-11T04:53:51.078Z,20.90
2018-06-11T04:56:19.123Z,21.07
2018-06-11T04:58:47.127Z,20.23
2018-06-11T05:01:15.207Z,21.40
2018-06-11T05:03:43.313Z,21.97
2018-06-11T05:06:11.380Z,20.67
2018-06-11T05:08:40.340Z,20.07
2018-06-11T05:11:08.400Z,20.93
2018-06-11T05:13:36.439Z,20.40
2018-06-11T05:16:04.492Z,20.00
2018-06-11T05:18:33.464Z,21.27
2018-06-11T05:21:01.554Z,21.60
2018-06-11T05:23:29.631Z,20.80
2018-06-11T05:25:57.886Z,20.00
2018-06-11T05:28:25.994Z,20.67
2018-06-11T05:30:54.181Z,21.47
2018-06-11T05:33:23.270Z,21.10
2018-06-11T05:35:51.379Z,21.60
2018-06-11T05:38:19.440Z,19.63
2018-06-11T05:40:47.526Z,21.00
2018-06-11T05:43:15.631Z,19.80
2018-06-11T05:45:43.735Z,21.13
2018-06-11T05:48:12.919Z,21.63
2018-06-11T05:50:40.991Z,20.23
2018-06-11T05:53:09.048Z,20.40
2018-06-11T05:55:37.085Z,20.07
2018-06-11T05:58:05.174Z,20.57
2018-06-11T06:00:33.137Z,20.27
2018-06-11T06:03:01.222Z,20.53
2018-06-11T06:05:29.318Z,19.90
2018-06-11T06:07:57.452Z,20.60
2018-06-11T06:10:25.495Z,22.27
2018-06-11T06:12:53.557Z,24.60
2018-06-11T06:15:21.542Z,25.63
2018-06-11T06:17:49.570Z,25.77
2018-06-11T06:20:17.620Z,26.57
2018-06-11T06:22:45.705Z,26.50
2018-06-11T06:25:13.708Z,26.50
2018-06-11T06:27:41.788Z,26.63
2018-06-11T06:30:09.822Z,27.70
2018-06-11T06:32:37.850Z,27.30
2018-06-11T06:35:05.927Z,27.00
2018-06-11T06:37:35.061Z,26.27
2018-06-11T06:40:03.155Z,28.43
2018-06-11T06:42:31.327Z,27.30
2018-06-11T06:44:59.429Z,26.47
2018-06-11T06:47:27.434Z,27.27
2018-06-11T06:49:55.449Z,26.30
2018-06-11T06:52:23.539Z,25.57
2018-06-11T06:54:51.618Z,25.80
2018-06-11T06:57:19.705Z,27.40
2018-06-11T06:59:47.843Z,27.33
2018-06-11T07:02:15.867Z,26.77
2018-06-11T07:04:44.048Z,28.17
2018-06-11T07:07:12.074Z,26.40
2018-06-11T07:09:40.198Z,25.17
2018-06-11T07:12:08.232Z,23.60
2018-06-11T07:14:36.287Z,22.70
2018-06-11T07:17:04.349Z,23.77
2018-06-11T07:19:32.418Z,25.03
2018-06-11T07:22:00.423Z,24.47
2018-06-11T07:24:28.452Z,22.70
2018-06-11T07:26:56.466Z,22.40
2018-06-11T07:29:24.556Z,22.77
2018-06-11T07:31:52.612Z,25.90
2018-06-11T07:34:20.667Z,27.07
2018-06-11T07:36:48.777Z,26.60
2018-06-11T07:39:16.819Z,28.33
2018-06-11T07:41:44.941Z,29.00
2018-06-11T07:44:13.010Z,29.37
2018-06-11T07:46:41.077Z,27.77
2018-06-11T07:49:09.105Z,27.97
2018-06-11T07:51:37.089Z,27.47
2018-06-11T07:54:05.177Z,27.87
2018-06-11T07:56:33.200Z,26.90
2018-06-11T07:59:01.204Z,25.77
2018-06-11T08:01:29.251Z,25.50
2018-06-11T08:03:57.276Z,26.70
2018-06-11T08:06:25.260Z,26.77
2018-06-11T08:08:53.247Z,26.43
2018-06-11T08:11:21.300Z,29.27
2018-06-11T08:13:49.363Z,28.97
2018-06-11T08:16:17.364Z,26.73
2018-06-11T08:18:45.398Z,26.47
2018-06-11T08:21:13.467Z,25.37
2018-06-11T08:23:41.582Z,24.20
2018-06-11T08:26:09.691Z,22.70
2018-06-11T08:28:37.734Z,22.30
2018-06-11T08:31:06.013Z,21.80
2018-06-11T08:33:34.019Z,20.73
2018-06-11T08:36:02.054Z,20.57
2018-06-11T08:38:30.074Z,19.90
2018-06-11T08:40:58.103Z,20.07
2018-06-11T08:43:26.179Z,19.47
2018-06-11T08:45:54.287Z,20.70
2018-06-11T08:48:22.329Z,19.60
2018-06-11T08:50:50.336Z,18.90
2018-06-11T08:53:18.440Z,18.80
2018-06-11T08:55:46.470Z,19.00
2018-06-11T08:58:14.553Z,19.93
2018-06-11T09:00:42.547Z,21.40
2018-06-11T09:03:10.636Z,19.67
2018-06-11T09:05:38.663Z,20.30
2018-06-11T09:08:06.731Z,18.27
2018-06-11T09:10:34.750Z,18.10
2018-06-11T09:13:02.854Z,17.37
2018-06-11T09:15:30.857Z,17.13
2018-06-11T09:17:58.969Z,15.90
2018-06-11T09:20:27.011Z,17.13
2018-06-11T09:22:55.029Z,16.03
2018-06-11T09:25:23.096Z,16.73
2018-06-11T09:27:51.177Z,17.13
2018-06-11T09:30:19.252Z,16.03
2018-06-11T09:32:47.345Z,16.37
2018-06-11T09:35:15.367Z,16.43
2018-06-11T09:37:43.779Z,15.23
2018-06-11T09:40:11.773Z,15.73
2018-06-11T09:42:39.778Z,15.93
2018-06-11T09:45:07.820Z,14.00
2018-06-11T09:47:35.868Z,14.67
2018-06-11T09:50:03.986Z,14.77
2018-06-11T09:52:32.118Z,14.67
2018-06-11T09:55:00.121Z,15.73
2018-06-11T09:57:28.102Z,14.40
2018-06-11T09:59:56.206Z,14.70
2018-06-11T10:02:24.463Z,15.67
2018-06-11T10:04:52.475Z,14.90
2018-06-11T10:07:20.491Z,13.87
2018-06-11T10:09:48.513Z,14.50
2018-06-11T10:12:16.597Z,14.30
2018-06-11T10:14:44.609Z,12.90
2018-06-11T10:17:12.678Z,12.80
2018-06-11T10:19:40.707Z,12.77
2018-06-11T10:22:08.699Z,11.30
2018-06-11T10:24:36.694Z,12.00
2018-06-11T10:27:04.844Z,11.20
2018-06-11T10:29:32.904Z,10.43
2018-06-11T10:32:01.009Z,11.07
2018-06-11T10:34:29.123Z,10.80
2018-06-11T10:36:57.207Z,11.30
2018-06-11T10:39:25.251Z,10.93
2018-06-11T10:41:53.856Z,10.90
2018-06-11T10:44:21.923Z,10.60
2018-06-11T10:46:49.977Z,9.80
2018-06-11T10:49:18.012Z,9.40
2018-06-11T10:51:46.038Z,9.47
2018-06-11T10:54:14.087Z,9.37
2018-06-11T10:56:42.130Z,9.37
2018-06-11T10:59:10.196Z,9.17
2018-06-11T11:01:38.243Z,8.73
2018-06-11T11:04:06.335Z,8.70
2018-06-11T11:06:34.286Z,8.70
2018-06-11T11:09:02.350Z,9.83
2018-06-11T11:11:30.387Z,8.80
2018-06-11T11:13:58.408Z,9.37
2018-06-11T11:16:26.424Z,9.27
2018-06-11T11:18:54.521Z,8.50
2018-06-11T11:21:22.582Z,8.10
2018-06-11T11:23:50.593Z,8.53
2018-06-11T11:26:18.674Z,7.93
2018-06-11T11:28:46.689Z,8.80
2018-06-11T11:31:14.768Z,8.47
2018-06-11T11:33:42.834Z,8.87
2018-06-11T11:36:10.762Z,8.07
2018-06-11T11:38:38.802Z,7.60
2018-06-11T11:41:06.778Z,7.10
2018-06-11T11:43:34.778Z,7.60
2018-06-11T11:46:02.772Z,7.20
2018-06-11T11:48:30.761Z,8.00
2018-06-11T11:50:59.774Z,7.90
2018-06-11T11:53:27.848Z,7.87
2018-06-11T11:55:55.855Z,7.70
2018-06-11T11:58:23.872Z,7.00
2018-06-11T12:00:51.974Z,7.30
2018-06-11T12:03:20.031Z,7.37
2018-06-11T12:05:48.100Z,7.10
2018-06-11T12:08:16.215Z,7.47
2018-06-11T12:10:44.211Z,6.80
2018-06-11T12:13:12.245Z,6.70
2018-06-11T12:15:40.271Z,6.13
2018-06-11T12:18:08.263Z,6.40
2018-06-11T12:20:36.360Z,5.80
2018-06-11T12:23:04.374Z,6.10
2018-06-11T12:25:32.515Z,5.70
2018-06-11T12:28:00.574Z,6.03
2018-06-11T12:30:28.712Z,6.20
2018-06-11T12:32:56.720Z,5.87
2018-06-11T12:35:24.808Z,5.80
2018-06-11T12:37:52.941Z,6.17
2018-06-11T12:40:20.947Z,5.90
2018-06-11T12:42:48.992Z,5.57
2018-06-11T12:45:17.056Z,5.73
2018-06-11T12:47:45.096Z,6.20
2018-06-11T12:50:44.205Z,5.90
2018-06-11T12:53:12.379Z,5.93
2018-06-11T12:55:40.383Z,5.50
2018-06-11T12:58:08.442Z,5.90
2018-06-11T13:00:36.444Z,6.00
2018-06-11T13:03:04.547Z,6.50
2018-06-11T13:05:32.547Z,5.60
2018-06-11T13:08:00.552Z,5.47
2018-06-11T13:10:28.689Z,5.60
2018-06-11T13:12:56.728Z,5.47
2018-06-11T13:15:24.803Z,5.13
2018-06-11T13:17:52.838Z,5.50
2018-06-11T13:20:20.803Z,5.27
2018-06-11T13:22:48.911Z,5.07
2018-06-11T13:25:16.913Z,5.23
2018-06-11T13:27:44.928Z,5.70
2018-06-11T13:30:12.928Z,5.33
2018-06-11T13:32:40.944Z,5.43
2018-06-11T13:35:08.998Z,4.87
2018-06-11T13:37:37.052Z,5.20
2018-06-11T13:40:05.136Z,5.00
2018-06-11T13:42:33.179Z,5.00
2018-06-11T13:45:01.229Z,4.60
2018-06-11T13:47:29.290Z,4.70
2018-06-11T13:49:57.370Z,4.63
2018-06-11T13:52:25.343Z,4.30
2018-06-11T13:54:53.506Z,4.00
2018-06-11T13:57:21.505Z,4.53
2018-06-11T13:59:49.497Z,3.80
2018-06-11T14:02:17.546Z,4.17
2018-06-11T14:04:45.519Z,3.90
2018-06-11T14:07:13.597Z,4.37
2018-06-11T14:09:41.698Z,3.97
2018-06-11T14:12:09.660Z,4.30
2018-06-11T14:14:37.806Z,3.93
2018-06-11T14:17:05.831Z,3.70
2018-06-11T14:19:33.850Z,3.70
2018-06-11T14:22:01.873Z,3.83
2018-06-11T14:24:29.862Z,4.10
2018-06-11T14:26:57.867Z,3.83
2018-06-11T14:29:25.935Z,3.70
2018-06-11T14:31:54.021Z,3.90
2018-06-11T14:34:22.022Z,3.80
2018-06-11T14:36:50.059Z,4.00
2018-06-11T14:39:18.222Z,3.37
2018-06-11T14:41:46.283Z,3.40
2018-06-11T14:44:14.311Z,3.70
2018-06-11T14:46:42.299Z,3.90
2018-06-11T14:49:10.312Z,4.13
2018-06-11T14:51:38.433Z,4.13
2018-06-11T14:54:06.506Z,4.03
2018-06-11T14:56:34.723Z,3.93
2018-06-11T14:59:02.776Z,3.60
2018-06-11T15:01:30.890Z,3.60
2018-06-11T15:03:58.994Z,3.60
2018-06-11T15:06:27.043Z,3.70
2018-06-11T15:08:55.089Z,3.90
2018-06-11T15:11:23.143Z,3.83
2018-06-11T15:13:51.188Z,3.90
2018-06-11T15:16:19.251Z,3.45
2018-06-11T15:18:47.269Z,3.67
2018-06-11T15:21:15.331Z,3.70
2018-06-11T15:23:43.476Z,4.07
2018-06-11T15:26:11.514Z,4.10
2018-06-11T15:28:39.605Z,4.10
2018-06-11T15:31:07.746Z,4.50
2018-06-11T15:33:35.844Z,3.93
2018-06-11T15:36:03.903Z,3.80
2018-06-11T15:38:32.373Z,3.60
2018-06-11T15:41:00.435Z,3.70
2018-06-11T15:43:28.461Z,3.87
2018-06-11T15:45:56.548Z,3.80
2018-06-11T15:48:24.701Z,3.70
2018-06-11T15:50:52.751Z,4.00
2018-06-11T15:53:20.749Z,4.17
2018-06-11T15:55:48.776Z,4.10
2018-06-11T15:58:17.197Z,4.07
2018-06-11T16:00:45.170Z,4.37
2018-06-11T16:03:13.155Z,4.93
2018-06-11T16:07:49.437Z,4.20
2018-06-11T16:10:17.561Z,4.20
2018-06-11T16:12:45.723Z,3.87
2018-06-11T16:15:13.789Z,4.27
2018-06-11T16:17:41.926Z,3.80
2018-06-11T16:20:10.208Z,3.87
2018-06-11T16:22:38.233Z,4.17
2018-06-11T16:25:06.290Z,4.30
2018-06-11T16:27:34.278Z,4.23
2018-06-11T16:30:02.400Z,4.30
2018-06-11T16:32:30.482Z,4.10
2018-06-11T16:34:58.509Z,3.87
2018-06-11T16:37:26.579Z,4.07
2018-06-11T16:39:54.594Z,3.90
2018-06-11T16:42:22.621Z,3.60
2018-06-11T16:44:50.716Z,4.37
2018-06-11T16:47:18.804Z,3.90
2018-06-11T16:49:46.796Z,3.77
2018-06-11T16:52:14.875Z,3.70
2018-06-11T16:54:42.965Z,3.60
2018-06-11T16:57:10.994Z,3.53
2018-06-11T16:59:39.020Z,4.20
2018-06-11T17:02:07.129Z,3.83
2018-06-11T17:04:35.323Z,3.90
2018-06-11T17:07:03.475Z,3.97
2018-06-11T17:09:31.523Z,4.00
2018-06-11T17:11:59.576Z,4.80
2018-06-11T17:14:27.667Z,4.63
2018-06-11T17:16:55.755Z,4.80
2018-06-11T17:19:23.746Z,4.30
2018-06-11T17:21:51.835Z,4.87
2018-06-11T17:24:19.850Z,4.33
2018-06-11T17:26:48.266Z,5.10
2018-06-11T17:29:16.553Z,4.50
2018-06-11T17:31:44.663Z,4.33
2018-06-11T17:34:12.705Z,5.10
2018-06-11T17:36:40.816Z,5.40
2018-06-11T17:39:08.944Z,4.80
2018-06-11T17:41:37.002Z,4.57
2018-06-11T17:44:05.078Z,4.80
2018-06-11T17:46:33.152Z,5.30
2018-06-11T17:49:01.215Z,5.43
2018-06-11T17:51:29.283Z,4.93
2018-06-11T17:53:57.462Z,5.00
2018-06-11T17:56:25.508Z,5.43
2018-06-11T17:58:53.618Z,5.10
2018-06-11T18:01:21.689Z,5.60
2018-06-11T18:03:50.150Z,5.37
2018-06-11T18:06:18.271Z,5.47
2018-06-11T18:08:46.244Z,5.60
2018-06-11T18:11:14.488Z,6.03
2018-06-11T18:13:43.489Z,6.30
2018-06-11T18:16:11.711Z,5.27
2018-06-11T18:18:39.805Z,6.53
2018-06-11T18:21:07.904Z,6.10
2018-06-11T18:23:36.020Z,5.40
2018-06-11T18:26:04.153Z,6.00
2018-06-11T18:28:32.212Z,5.30
2018-06-11T18:31:00.289Z,5.97
2018-06-11T18:33:28.326Z,6.00
2018-06-11T18:35:57.187Z,6.30
2018-06-11T18:38:25.220Z,6.53
2018-06-11T18:40:53.283Z,6.40
2018-06-11T18:43:21.345Z,6.40
2018-06-11T18:45:49.478Z,6.40
2018-06-11T18:48:17.602Z,6.70
2018-06-11T18:50:45.711Z,6.47
2018-06-11T18:53:13.738Z,6.13
2018-06-11T18:55:41.768Z,6.50
2018-06-11T18:58:09.861Z,6.27
2018-06-11T19:00:37.921Z,6.00
2018-06-11T19:03:05.986Z,5.57
2018-06-11T19:05:34.122Z,6.27
2018-06-11T19:08:02.177Z,6.60
2018-06-11T19:10:30.293Z,6.17
2018-06-11T19:12:58.383Z,5.70
2018-06-11T19:15:26.406Z,5.90
2018-06-11T19:17:54.590Z,6.10
2018-06-11T19:20:22.677Z,6.57
2018-06-11T19:22:50.748Z,6.10
2018-06-11T19:25:18.842Z,5.77
2018-06-11T19:27:47.033Z,5.77
2018-06-11T19:30:15.170Z,5.80
2018-06-11T19:32:43.329Z,6.03
2018-06-11T19:35:11.484Z,5.47
2018-06-11T19:37:39.540Z,6.00
2018-06-11T19:40:07.666Z,5.53
2018-06-11T19:42:35.780Z,6.67
2018-06-11T19:45:03.862Z,5.87
2018-06-11T19:47:31.993Z,5.33
2018-06-11T19:50:00.158Z,5.50
2018-06-11T19:52:28.261Z,5.00
2018-06-11T19:54:56.750Z,5.00
2018-06-11T19:57:24.893Z,5.53
2018-06-11T19:59:52.972Z,5.37
2018-06-11T20:02:21.203Z,5.83
2018-06-11T20:04:49.279Z,5.23
2018-06-11T20:07:17.712Z,5.77
2018-06-11T20:09:45.826Z,5.60
2018-06-11T20:12:13.923Z,5.40
2018-06-11T20:14:41.973Z,5.73
2018-06-11T20:17:10.280Z,5.53
2018-06-11T20:19:38.478Z,5.53
2018-06-11T20:22:06.767Z,6.53
2018-06-11T20:24:34.860Z,5.93
2018-06-11T20:27:02.917Z,5.63
2018-06-11T20:29:30.985Z,6.07
2018-06-11T20:31:59.114Z,5.80
2018-06-11T20:34:27.212Z,6.20
2018-06-11T20:36:55.367Z,6.20
2018-06-11T20:39:23.382Z,6.17
2018-06-11T20:41:51.382Z,6.00
2018-06-11T20:44:19.492Z,6.10
2018-06-11T20:46:48.051Z,6.80
2018-06-11T20:49:16.136Z,5.67
2018-06-11T20:51:44.248Z,6.47
2018-06-11T20:54:12.291Z,6.13
2018-06-11T20:56:40.409Z,5.57
2018-06-11T20:59:08.487Z,6.43
2018-06-11T21:01:36.923Z,5.70
2018-06-11T21:04:04.996Z,5.13
2018-06-11T21:06:33.079Z,5.77
2018-06-11T21:09:01.155Z,5.37
2018-06-11T21:11:29.220Z,6.23
2018-06-11T21:13:57.277Z,5.70
2018-06-11T21:16:25.402Z,5.43
2018-06-11T21:18:53.439Z,5.87
2018-06-11T21:21:21.570Z,6.17
2018-06-11T21:23:49.635Z,5.90
2018-06-11T21:26:17.700Z,5.93
2018-06-11T21:28:45.739Z,6.03
2018-06-11T21:31:13.759Z,5.40
2018-06-11T21:33:41.899Z,6.00
2018-06-11T21:36:09.962Z,5.90
2018-06-11T21:38:38.017Z,5.80
2018-06-11T21:41:06.064Z,5.23
2018-06-11T21:43:34.115Z,5.60
2018-06-11T21:46:02.233Z,5.43
2018-06-11T21:48:30.289Z,5.87
2018-06-11T21:50:58.271Z,5.70
2018-06-11T21:53:26.343Z,5.63
2018-06-11T21:55:54.400Z,6.00
2018-06-11T21:58:22.420Z,6.43
2018-06-11T22:00:50.402Z,6.33
2018-06-11T22:03:19.397Z,5.97
2018-06-11T22:05:47.430Z,5.67
2018-06-11T22:08:15.539Z,6.30
2018-06-11T22:10:43.511Z,6.70
2018-06-11T22:13:11.522Z,6.33
2018-06-11T22:15:39.617Z,6.43
2018-06-11T22:18:07.672Z,6.37
2018-06-11T22:20:35.720Z,6.80
2018-06-11T22:23:03.814Z,6.13
2018-06-11T22:25:31.911Z,6.90
2018-06-11T22:27:59.878Z,6.90
2018-06-11T22:30:28.068Z,6.93
2018-06-11T22:32:56.107Z,7.17
2018-06-11T22:35:24.095Z,6.53
2018-06-11T22:37:52.190Z,6.80
2018-06-11T22:40:20.235Z,7.20
2018-06-11T22:42:48.279Z,6.63
2018-06-11T22:45:16.311Z,7.03
2018-06-11T22:47:44.307Z,7.00
2018-06-11T22:50:12.355Z,6.80
2018-06-11T22:52:40.371Z,6.60
2018-06-11T22:55:08.495Z,6.53
2018-06-11T22:57:36.575Z,6.70
2018-06-11T23:00:04.855Z,7.33
2018-06-11T23:02:32.858Z,6.80
2018-06-11T23:05:00.886Z,6.33
2018-06-11T23:07:28.940Z,7.13
2018-06-11T23:09:56.940Z,6.80
2018-06-11T23:12:24.999Z,7.07
2018-06-11T23:14:53.024Z,7.10
2018-06-11T23:17:21.236Z,8.03
2018-06-11T23:19:49.303Z,6.40
2018-06-11T23:22:17.339Z,7.70
2018-06-11T23:24:45.391Z,7.10
2018-06-11T23:27:13.380Z,7.10
2018-06-11T23:29:41.527Z,7.20
2018-06-11T23:32:09.570Z,7.90
2018-06-11T23:34:37.654Z,6.73
2018-06-11T23:37:05.650Z,7.43
2018-06-11T23:39:33.728Z,7.17
2018-06-11T23:42:01.712Z,7.20
2018-06-11T23:44:29.739Z,7.47
2018-06-11T23:46:57.731Z,7.77
2018-06-11T23:49:25.808Z,7.40
2018-06-11T23:51:53.835Z,7.60
2018-06-11T23:54:22.519Z,7.00
2018-06-11T23:56:50.555Z,7.63
2018-06-11T23:59:18.594Z,7.97
